createdAt,value
2022-08-03T00:01:50.771Z,100.00
2022-08-03T00:04:17.508Z,100.00
2022-08-03T00:06:44.087Z,100.00
2022-08-03T00:09:11.152Z,100.00
2022-08-03T00:11:37.981Z,100.00
2022-08-03T00:14:05.674Z,100.00
2022-08-03T00:16:32.441Z,100.00
2022-08-03T00:19:00.997Z,100.00
2022-08-03T00:21:28.490Z,100.00
2022-08-03T00:23:55.070Z,100.00
2022-08-03T00:26:21.879Z,100.00
2022-08-03T00:28:49.018Z,100.00
2022-08-03T00:31:15.762Z,100.00
2022-08-03T00:33:59.034Z,100.00
2022-08-03T00:36:28.321Z,100.00
2022-08-03T00:38:55.390Z,100.00
2022-08-03T00:41:21.912Z,100.00
2022-08-03T00:43:48.490Z,100.00
2022-08-03T00:46:20.535Z,100.00
2022-08-03T00:48:51.052Z,100.00
2022-08-03T00:51:19.044Z,100.00
2022-08-03T00:53:45.970Z,100.00
2022-08-03T00:56:16.595Z,100.00
2022-08-03T00:58:46.886Z,100.00
2022-08-03T01:01:13.822Z,100.00
2022-08-03T01:03:40.681Z,100.00
2022-08-03T01:06:20.740Z,100.00
2022-08-03T01:09:12.743Z,100.00
2022-08-03T01:12:01.882Z,100.00
2022-08-03T01:14:42.295Z,100.00
2022-08-03T01:17:20.633Z,100.00
2022-08-03T01:19:58.527Z,100.00
2022-08-03T01:22:49.964Z,100.00
2022-08-03T01:25:22.402Z,100.00
2022-08-03T01:28:03.571Z,100.00
2022-08-03T01:30:31.864Z,100.00
2022-08-03T01:33:05.291Z,100.00
2022-08-03T01:35:48.911Z,100.00
2022-08-03T01:38:18.596Z,100.00
2022-08-03T01:40:47.053Z,100.00
2022-08-03T01:44:26.732Z,100.00
2022-08-03T01:46:04.367Z,100.00
2022-08-03T01:48:32.024Z,100.00
2022-08-03T01:50:59.598Z,100.00
2022-08-03T01:53:26.333Z,100.00
2022-08-03T01:55:55.068Z,100.00
2022-08-03T01:58:22.275Z,100.00
2022-08-03T02:00:49.792Z,100.00
2022-08-03T02:03:16.657Z,100.00
2022-08-03T02:05:45.397Z,100.00
2022-08-03T02:08:13.247Z,100.00
2022-08-03T02:10:41.738Z,100.00
2022-08-03T02:13:08.908Z,100.00
2022-08-03T02:15:37.295Z,100.00
2022-08-03T02:18:06.360Z,100.00
2022-08-03T02:20:36.210Z,100.00
2022-08-03T02:23:02.709Z,100.00
2022-08-03T02:25:30.411Z,100.00
2022-08-03T02:28:07.057Z,100.00
2022-08-03T02:30:40.063Z,100.00
2022-08-03T02:33:18.296Z,100.00
2022-08-03T02:35:45.276Z,100.00
2022-08-03T02:38:12.794Z,100.00
2022-08-03T02:40:39.659Z,100.00
2022-08-03T02:43:09.322Z,100.00
2022-08-03T02:45:37.121Z,100.00
2022-08-03T02:48:05.211Z,100.00
2022-08-03T02:50:32.397Z,100.00
2022-08-03T02:52:59.970Z,100.00
2022-08-03T02:55:27.438Z,100.00
2022-08-03T02:57:54.648Z,100.00
2022-08-03T03:00:27.365Z,100.00
2022-08-03T03:02:57.702Z,100.00
2022-08-03T03:05:54.518Z,100.00
2022-08-03T03:08:17.974Z,100.00
2022-08-03T03:10:46.013Z,100.00
2022-08-03T03:13:14.210Z,100.00
2022-08-03T03:15:41.837Z,100.00
2022-08-03T03:18:10.044Z,100.00
2022-08-03T03:20:37.639Z,100.00
2022-08-03T03:23:05.241Z,100.00
2022-08-03T03:25:32.518Z,100.00
2022-08-03T03:28:00.471Z,100.00
2022-08-03T03:30:28.025Z,100.00
2022-08-03T03:32:54.705Z,100.00
2022-08-03T03:35:21.460Z,100.00
2022-08-03T03:37:48.000Z,100.00
2022-08-03T03:40:14.727Z,100.00
2022-08-03T03:42:41.477Z,100.00
2022-08-03T03:45:08.631Z,100.00
2022-08-03T03:47:35.673Z,100.00
2022-08-03T03:50:03.819Z,100.00
2022-08-03T03:52:31.640Z,100.00
2022-08-03T03:55:01.026Z,100.00
2022-08-03T03:57:28.239Z,100.00
2022-08-03T03:59:54.737Z,100.00
2022-08-03T04:02:21.231Z,100.00
2022-08-03T04:05:06.246Z,100.00
2022-08-03T04:08:11.971Z,100.00
2022-08-03T04:10:58.684Z,100.00
2022-08-03T04:13:29.628Z,100.00
2022-08-03T04:15:56.900Z,100.00
2022-08-03T04:18:24.486Z,100.00
2022-08-03T04:20:51.996Z,100.00
2022-08-03T04:23:21.414Z,100.00
2022-08-03T04:25:49.207Z,100.00
2022-08-03T04:28:31.321Z,100.00
2022-08-03T04:30:59.895Z,100.00
2022-08-03T04:33:29.556Z,100.00
2022-08-03T04:36:02.636Z,100.00
2022-08-03T04:38:31.738Z,100.00
2022-08-03T04:40:59.496Z,100.00
2022-08-03T04:43:26.866Z,100.00
2022-08-03T04:45:54.002Z,100.00
2022-08-03T04:48:20.674Z,100.00
2022-08-03T04:50:47.919Z,100.00
2022-08-03T04:53:14.431Z,100.00
2022-08-03T04:55:40.937Z,100.00
2022-08-03T04:58:07.454Z,100.00
2022-08-03T05:00:33.954Z,100.00
2022-08-03T05:03:00.467Z,100.00
2022-08-03T05:05:27.016Z,100.00
2022-08-03T05:08:13.505Z,100.00
2022-08-03T05:10:40.560Z,100.00
2022-08-03T05:13:11.922Z,100.00
2022-08-03T05:15:42.941Z,100.00
2022-08-03T05:18:14.009Z,100.00
2022-08-03T05:20:41.147Z,100.00
2022-08-03T05:23:07.703Z,100.00
2022-08-03T05:25:34.248Z,100.00
2022-08-03T05:28:00.748Z,100.00
2022-08-03T05:30:33.571Z,100.00
2022-08-03T05:33:01.973Z,100.00
2022-08-03T05:35:57.883Z,100.00
2022-08-03T05:38:28.126Z,100.00
2022-08-03T05:41:22.096Z,100.00
2022-08-03T05:43:47.438Z,100.00
2022-08-03T05:46:14.033Z,100.00
2022-08-03T05:48:41.381Z,100.00
2022-08-03T05:51:11.193Z,100.00
2022-08-03T05:53:38.398Z,100.00
2022-08-03T05:56:13.800Z,100.00
2022-08-03T05:58:46.161Z,100.00
2022-08-03T06:01:12.871Z,100.00
2022-08-03T06:03:39.480Z,100.00
2022-08-03T06:06:06.098Z,100.00
2022-08-03T06:08:32.597Z,100.00
2022-08-03T06:10:59.096Z,100.00
2022-08-03T06:13:25.656Z,100.00
2022-08-03T06:15:52.153Z,100.00
2022-08-03T06:18:18.769Z,99.50
2022-08-03T06:20:45.327Z,98.48
2022-08-03T06:23:16.220Z,97.65
2022-08-03T06:25:44.566Z,96.87
2022-08-03T06:28:35.210Z,96.19
2022-08-03T06:30:58.961Z,95.75
2022-08-03T06:33:26.452Z,95.14
2022-08-03T06:36:12.971Z,94.62
2022-08-03T06:38:39.470Z,94.39
2022-08-03T06:41:06.067Z,94.32
2022-08-03T06:43:35.903Z,94.06
2022-08-03T06:46:02.530Z,93.67
2022-08-03T06:48:29.113Z,93.23
2022-08-03T06:50:55.653Z,93.35
2022-08-03T06:53:22.493Z,92.68
2022-08-03T06:55:54.267Z,91.61
2022-08-03T06:58:21.329Z,91.80
2022-08-03T07:00:48.045Z,90.57
2022-08-03T07:03:15.104Z,89.11
2022-08-03T07:05:42.321Z,88.39
2022-08-03T07:08:08.887Z,87.89
2022-08-03T07:10:35.397Z,87.94
2022-08-03T07:13:01.893Z,87.17
2022-08-03T07:15:55.632Z,86.50
2022-08-03T07:18:14.909Z,86.12
2022-08-03T07:20:41.449Z,85.99
2022-08-03T07:23:07.974Z,85.61
2022-08-03T07:25:34.619Z,85.30
2022-08-03T07:28:02.917Z,84.84
2022-08-03T07:30:29.433Z,84.85
2022-08-03T07:32:55.952Z,84.90
2022-08-03T07:35:24.704Z,85.01
2022-08-03T07:37:54.412Z,84.21
2022-08-03T07:40:22.200Z,83.38
2022-08-03T07:42:48.791Z,83.23
2022-08-03T07:45:19.743Z,83.48
2022-08-03T07:47:53.650Z,83.35
2022-08-03T07:50:21.278Z,83.52
2022-08-03T07:52:48.063Z,84.06
2022-08-03T07:55:14.568Z,83.89
2022-08-03T07:57:41.207Z,83.93
2022-08-03T08:00:14.355Z,84.01
2022-08-03T08:02:41.531Z,84.73
2022-08-03T08:05:08.571Z,84.59
2022-08-03T08:07:35.075Z,83.87
2022-08-03T08:12:28.140Z,84.06
2022-08-03T08:14:54.642Z,84.62
2022-08-03T08:17:21.167Z,85.04
2022-08-03T08:19:51.562Z,83.99
2022-08-03T08:22:26.544Z,83.83
2022-08-03T08:24:58.489Z,83.46
2022-08-03T08:28:29.372Z,83.14
2022-08-03T08:30:26.682Z,83.22
2022-08-03T08:32:58.322Z,83.58
2022-08-03T08:35:29.972Z,82.97
2022-08-03T08:37:56.612Z,82.86
2022-08-03T08:40:25.525Z,82.39
2022-08-03T08:42:58.502Z,81.87
2022-08-03T08:45:26.460Z,82.30
2022-08-03T08:47:59.763Z,82.81
2022-08-03T08:50:28.752Z,82.69
2022-08-03T08:52:56.231Z,82.77
2022-08-03T08:55:23.461Z,82.40
2022-08-03T08:57:53.181Z,82.11
2022-08-03T09:00:20.494Z,81.57
2022-08-03T09:02:47.230Z,80.68
2022-08-03T09:05:20.874Z,80.37
2022-08-03T09:07:54.279Z,80.34
2022-08-03T09:10:22.010Z,80.68
2022-08-03T09:12:51.258Z,80.95
2022-08-03T09:15:31.170Z,81.25
2022-08-03T09:18:00.254Z,81.62
2022-08-03T09:20:29.502Z,80.93
2022-08-03T09:22:58.914Z,80.78
2022-08-03T09:25:32.755Z,80.06
2022-08-03T09:28:11.094Z,79.69
2022-08-03T09:30:43.610Z,79.32
2022-08-03T09:33:12.366Z,78.60
2022-08-03T09:35:58.508Z,78.49
2022-08-03T09:38:28.336Z,78.94
2022-08-03T09:40:59.542Z,78.69
2022-08-03T09:43:27.558Z,78.71
2022-08-03T09:46:03.383Z,79.35
2022-08-03T09:48:31.107Z,77.83
2022-08-03T09:51:12.933Z,78.41
2022-08-03T09:53:58.773Z,78.18
2022-08-03T09:56:47.171Z,77.18
2022-08-03T09:59:26.707Z,76.10
2022-08-03T10:01:54.505Z,75.76
2022-08-03T10:04:21.556Z,76.41
2022-08-03T10:07:03.398Z,76.99
2022-08-03T10:09:30.014Z,76.36
2022-08-03T10:11:56.746Z,76.61
2022-08-03T10:14:23.679Z,76.79
2022-08-03T10:16:50.599Z,76.63
2022-08-03T10:19:17.420Z,76.44
2022-08-03T10:21:51.195Z,75.82
2022-08-03T10:24:21.201Z,76.88
2022-08-03T10:26:49.926Z,76.32
2022-08-03T10:29:27.373Z,76.72
2022-08-03T10:31:58.749Z,76.11
2022-08-03T10:34:34.989Z,76.84
2022-08-03T10:37:05.351Z,77.51
2022-08-03T10:39:32.082Z,77.39
2022-08-03T10:41:59.869Z,76.37
2022-08-03T10:44:37.714Z,76.36
2022-08-03T10:47:04.576Z,75.89
2022-08-03T10:49:34.830Z,75.33
2022-08-03T10:52:02.858Z,76.55
2022-08-03T10:55:10.076Z,76.49
2022-08-03T10:57:49.660Z,75.60
2022-08-03T11:00:18.503Z,75.46
2022-08-03T11:03:06.938Z,76.03
2022-08-03T11:05:38.467Z,75.28
2022-08-03T11:08:22.219Z,74.51
2022-08-03T11:10:50.155Z,73.00
2022-08-03T11:13:19.216Z,73.50
2022-08-03T11:15:47.862Z,74.55
2022-08-03T11:18:14.911Z,72.76
2022-08-03T11:20:59.472Z,72.64
2022-08-03T11:24:03.072Z,71.25
2022-08-03T11:26:33.308Z,72.14
2022-08-03T11:29:27.323Z,72.47
2022-08-03T11:31:53.711Z,72.67
2022-08-03T11:34:20.258Z,72.83
2022-08-03T11:37:21.742Z,72.59
2022-08-03T11:39:50.567Z,72.50
2022-08-03T11:42:23.135Z,71.91
2022-08-03T11:45:00.232Z,73.20
2022-08-03T11:47:28.118Z,72.74
2022-08-03T11:49:57.443Z,72.68
2022-08-03T11:52:26.930Z,72.90
2022-08-03T11:54:56.949Z,70.54
2022-08-03T11:58:58.211Z,70.28
2022-08-03T12:00:29.012Z,69.77
2022-08-03T12:03:12.134Z,69.08
2022-08-03T12:05:51.086Z,69.05
2022-08-03T12:08:39.271Z,69.52
2022-08-03T12:11:09.039Z,70.62
2022-08-03T12:14:44.868Z,70.80
2022-08-03T12:16:32.323Z,72.05
2022-08-03T12:18:59.867Z,72.24
2022-08-03T12:21:26.733Z,72.13
2022-08-03T12:24:00.199Z,73.14
2022-08-03T12:26:28.150Z,73.99
2022-08-03T12:28:54.699Z,74.19
2022-08-03T12:31:21.254Z,73.85
2022-08-03T12:33:58.933Z,73.29
2022-08-03T12:36:26.575Z,73.33
2022-08-03T12:39:02.302Z,72.41
2022-08-03T12:41:35.134Z,72.19
2022-08-03T12:44:06.841Z,72.86
2022-08-03T12:46:41.656Z,72.88
2022-08-03T12:49:14.998Z,72.66
2022-08-03T12:51:44.494Z,72.86
2022-08-03T12:54:17.043Z,72.60
2022-08-03T12:57:05.952Z,72.15
2022-08-03T12:59:45.204Z,71.93
2022-08-03T13:02:23.620Z,71.69
2022-08-03T13:04:51.083Z,71.20
2022-08-03T13:07:18.377Z,70.48
2022-08-03T13:09:48.233Z,70.62
2022-08-03T13:12:21.000Z,70.38
2022-08-03T13:14:49.540Z,70.20
2022-08-03T13:17:19.588Z,70.35
2022-08-03T13:19:47.203Z,70.98
2022-08-03T13:22:22.172Z,71.26
2022-08-03T13:24:50.645Z,70.99
2022-08-03T13:28:01.404Z,70.81
2022-08-03T13:30:04.847Z,70.93
2022-08-03T13:32:31.352Z,71.24
2022-08-03T13:34:58.158Z,71.72
2022-08-03T13:37:25.362Z,72.09
2022-08-03T13:39:58.787Z,71.73
2022-08-03T13:42:31.416Z,72.46
2022-08-03T13:44:58.882Z,72.00
2022-08-03T13:47:25.842Z,72.09
2022-08-03T13:50:00.447Z,71.14
2022-08-03T13:52:30.247Z,70.21
2022-08-03T13:54:56.750Z,69.39
2022-08-03T13:58:04.253Z,68.83
2022-08-03T14:00:10.310Z,67.71
2022-08-03T14:02:37.097Z,68.80
2022-08-03T14:05:03.810Z,69.91
2022-08-03T14:07:30.303Z,68.90
2022-08-03T14:09:56.924Z,68.98
2022-08-03T14:12:23.432Z,68.32
2022-08-03T14:14:50.007Z,67.48
2022-08-03T14:17:16.740Z,67.62
2022-08-03T14:19:53.503Z,67.73
2022-08-03T14:22:20.990Z,67.63
2022-08-03T14:24:47.511Z,66.99
2022-08-03T14:27:15.789Z,66.50
2022-08-03T14:29:42.304Z,66.16
2022-08-03T14:32:11.974Z,66.65
2022-08-03T14:34:39.449Z,66.83
2022-08-03T14:37:05.939Z,67.19
2022-08-03T14:42:20.302Z,67.02
2022-08-03T14:44:46.974Z,67.82
2022-08-03T14:47:13.555Z,69.88
2022-08-03T14:50:31.257Z,69.63
2022-08-03T14:52:26.551Z,69.50
2022-08-03T14:54:53.109Z,70.02
2022-08-03T14:57:19.839Z,69.75
2022-08-03T14:59:55.611Z,69.37
2022-08-03T15:02:24.719Z,69.70
2022-08-03T15:04:51.976Z,70.21
2022-08-03T15:07:19.086Z,69.88
2022-08-03T15:09:45.766Z,70.74
2022-08-03T15:12:12.297Z,72.05
2022-08-03T15:14:38.813Z,72.44
2022-08-03T15:17:05.515Z,73.35
2022-08-03T15:20:00.341Z,74.18
2022-08-03T15:22:20.463Z,75.69
2022-08-03T15:24:47.389Z,74.61
2022-08-03T15:27:13.901Z,73.76
2022-08-03T15:30:04.741Z,73.16
2022-08-03T15:32:27.082Z,72.75
2022-08-03T15:34:55.242Z,72.29
2022-08-03T15:37:21.822Z,71.79
2022-08-03T15:39:59.328Z,70.51
2022-08-03T15:42:30.657Z,72.07
2022-08-03T15:44:57.299Z,73.10
2022-08-03T15:47:23.821Z,74.53
2022-08-03T15:49:50.316Z,75.27
2022-08-03T15:52:16.842Z,75.14
2022-08-03T15:54:43.374Z,75.89
2022-08-03T15:57:09.873Z,76.00
2022-08-03T15:59:36.560Z,76.67
2022-08-03T16:02:03.234Z,76.90
2022-08-03T16:04:29.808Z,76.17
2022-08-03T16:06:56.309Z,74.51
2022-08-03T16:09:43.516Z,73.56
2022-08-03T16:12:11.832Z,74.60
2022-08-03T16:14:51.855Z,74.35
2022-08-03T16:17:20.202Z,75.02
2022-08-03T16:19:46.911Z,74.65
2022-08-03T16:22:14.479Z,74.39
2022-08-03T16:24:41.214Z,75.17
2022-08-03T16:27:17.651Z,75.65
2022-08-03T16:29:54.372Z,76.74
2022-08-03T16:32:21.019Z,76.37
2022-08-03T16:34:48.163Z,76.52
2022-08-03T16:37:37.789Z,76.86
2022-08-03T16:40:02.501Z,76.54
2022-08-03T16:42:29.040Z,76.05
2022-08-03T16:44:55.661Z,76.37
2022-08-03T16:47:22.932Z,75.86
2022-08-03T16:49:54.499Z,75.05
2022-08-03T16:52:23.365Z,74.70
2022-08-03T16:54:50.643Z,74.21
2022-08-03T16:57:58.304Z,73.92
2022-08-03T17:00:08.892Z,74.23
2022-08-03T17:02:36.384Z,74.27
2022-08-03T17:05:03.207Z,74.34
2022-08-03T17:07:30.395Z,74.65
2022-08-03T17:09:57.478Z,74.63
2022-08-03T17:12:27.092Z,74.44
2022-08-03T17:14:54.319Z,74.49
2022-08-03T17:17:53.739Z,74.62
2022-08-03T17:20:19.072Z,74.69
2022-08-03T17:22:56.410Z,74.94
2022-08-03T17:26:01.331Z,74.43
2022-08-03T17:28:50.296Z,74.40
2022-08-03T17:31:32.220Z,74.64
2022-08-03T17:34:00.790Z,75.66
2022-08-03T17:36:47.659Z,77.09
2022-08-03T17:39:16.587Z,77.75
2022-08-03T17:41:49.153Z,78.29
2022-08-03T17:44:35.240Z,79.01
2022-08-03T17:47:04.693Z,79.44
2022-08-03T17:49:33.134Z,80.57
2022-08-03T17:52:54.749Z,80.61
2022-08-03T17:55:56.227Z,81.62
2022-08-03T17:58:14.937Z,81.47
2022-08-03T18:01:02.188Z,80.86
2022-08-03T18:03:57.988Z,80.77
2022-08-03T18:06:29.523Z,80.90
2022-08-03T18:09:04.837Z,81.15
2022-08-03T18:11:46.096Z,81.58
2022-08-03T18:14:23.859Z,81.99
2022-08-03T18:16:57.848Z,82.56
2022-08-03T18:20:03.506Z,82.74
2022-08-03T18:22:14.199Z,83.05
2022-08-03T18:24:42.186Z,83.07
2022-08-03T18:27:10.628Z,83.92
2022-08-03T18:29:37.441Z,84.92
2022-08-03T18:32:11.388Z,85.52
2022-08-03T18:34:41.132Z,85.99
2022-08-03T18:37:25.247Z,86.30
2022-08-03T18:39:55.008Z,86.70
2022-08-03T18:45:54.893Z,87.44
2022-08-03T18:48:02.411Z,87.91
2022-08-03T18:50:41.195Z,88.07
2022-08-03T18:53:20.076Z,88.23
2022-08-03T18:56:08.216Z,88.26
2022-08-03T18:58:52.296Z,87.99
2022-08-03T19:02:00.881Z,88.21
2022-08-03T19:04:27.482Z,88.25
2022-08-03T19:07:08.315Z,88.95
2022-08-03T19:09:49.625Z,88.99
2022-08-03T19:12:28.209Z,88.71
2022-08-03T19:15:03.064Z,88.12
2022-08-03T19:17:29.915Z,87.79
2022-08-03T19:19:57.708Z,89.25
2022-08-03T19:22:27.173Z,90.00
2022-08-03T19:24:57.862Z,90.38
2022-08-03T19:27:26.884Z,90.92
2022-08-03T19:29:58.718Z,90.85
2022-08-03T19:32:28.855Z,90.71
2022-08-03T19:34:56.845Z,89.90
2022-08-03T19:37:27.490Z,88.87
2022-08-03T19:40:10.933Z,87.57
2022-08-03T19:42:41.352Z,87.64
2022-08-03T19:45:11.461Z,88.55
2022-08-03T19:47:52.693Z,89.48
2022-08-03T19:50:20.359Z,90.20
2022-08-03T19:52:47.857Z,90.30
2022-08-03T19:55:15.795Z,90.57
2022-08-03T19:57:45.689Z,89.30
2022-08-03T20:00:14.003Z,87.76
2022-08-03T20:02:41.260Z,87.13
2022-08-03T20:05:14.732Z,87.77
2022-08-03T20:07:42.612Z,87.85
2022-08-03T20:10:15.346Z,88.68
2022-08-03T20:12:43.327Z,89.21
2022-08-03T20:15:10.628Z,89.44
2022-08-03T20:17:56.884Z,89.81
2022-08-03T20:20:29.564Z,91.17
2022-08-03T20:22:58.013Z,91.03
2022-08-03T20:25:38.125Z,90.31
2022-08-03T20:28:13.476Z,91.05
2022-08-03T20:33:46.733Z,93.96
2022-08-03T20:36:17.842Z,94.38
2022-08-03T20:38:46.960Z,94.26
2022-08-03T20:41:17.014Z,94.72
2022-08-03T20:43:43.942Z,94.48
2022-08-03T20:46:31.293Z,94.58
2022-08-03T20:48:58.871Z,94.13
2022-08-03T20:51:49.926Z,94.40
2022-08-03T20:54:28.736Z,92.92
2022-08-03T20:56:57.705Z,90.70
2022-08-03T20:59:28.778Z,89.88
2022-08-03T21:01:57.066Z,89.12
2022-08-03T21:04:24.215Z,88.99
2022-08-03T21:07:01.044Z,90.40
2022-08-03T21:09:39.950Z,91.33
2022-08-03T21:12:13.035Z,91.62
2022-08-03T21:12:58.870Z,87.15
2022-08-03T21:13:07.090Z,92.41
2022-08-03T21:15:02.420Z,91.33
2022-08-03T21:17:40.440Z,90.25
2022-08-03T21:20:09.518Z,90.31
2022-08-03T21:22:38.065Z,91.33
2022-08-03T21:25:09.187Z,92.70
2022-08-03T21:27:36.925Z,93.23
2022-08-03T21:30:06.720Z,93.21
2022-08-03T21:32:33.592Z,93.59
2022-08-03T21:35:01.313Z,93.08
2022-08-03T21:37:28.949Z,93.65
2022-08-03T21:39:56.674Z,95.20
2022-08-03T21:42:26.757Z,95.29
2022-08-03T21:44:55.503Z,96.16
2022-08-03T21:47:23.525Z,96.48
2022-08-03T21:50:06.384Z,96.02
2022-08-03T21:52:40.034Z,95.14
2022-08-03T21:55:07.307Z,95.33
2022-08-03T21:57:34.688Z,94.78
2022-08-03T22:00:16.690Z,96.99
2022-08-03T22:02:53.189Z,97.17
2022-08-03T22:05:42.903Z,96.31
2022-08-03T22:08:12.172Z,95.88
2022-08-03T22:10:39.017Z,94.01
2022-08-03T22:13:05.596Z,93.12
2022-08-03T22:15:32.459Z,93.13
2022-08-03T22:17:59.173Z,92.05
2022-08-03T22:20:25.998Z,90.18
2022-08-03T22:22:55.869Z,90.56
2022-08-03T22:25:29.738Z,90.71
2022-08-03T22:27:57.012Z,91.07
2022-08-03T22:30:23.600Z,90.75
2022-08-03T22:32:52.963Z,89.84
2022-08-03T22:35:20.738Z,90.08
2022-08-03T22:37:49.125Z,90.18
2022-08-03T22:40:16.683Z,90.00
2022-08-03T22:42:45.659Z,90.29
2022-08-03T22:45:12.476Z,90.68
2022-08-03T22:47:59.783Z,91.26
2022-08-03T22:50:32.562Z,91.78
2022-08-03T22:53:00.355Z,93.20
2022-08-03T22:55:27.293Z,93.31
2022-08-03T22:57:56.119Z,93.81
2022-08-03T23:00:23.364Z,94.23
2022-08-03T23:02:51.280Z,95.73
2022-08-03T23:06:01.185Z,98.45
2022-08-03T23:08:10.016Z,99.95
2022-08-03T23:10:37.173Z,99.73
2022-08-03T23:13:03.673Z,97.55
2022-08-03T23:15:30.648Z,96.09
2022-08-03T23:17:58.745Z,95.28
2022-08-03T23:20:26.836Z,95.24
2022-08-03T23:22:54.811Z,94.19
2022-08-03T23:25:21.959Z,93.50
2022-08-03T23:27:49.300Z,93.66
2022-08-03T23:30:34.052Z,93.86
2022-08-03T23:33:01.040Z,94.34
2022-08-03T23:36:27.886Z,96.31
2022-08-03T23:38:36.832Z,97.25
2022-08-03T23:41:04.832Z,97.87
2022-08-03T23:43:51.115Z,98.36
2022-08-03T23:46:19.746Z,98.54
2022-08-03T23:48:46.381Z,97.61
2022-08-03T23:51:42.408Z,97.58
2022-08-03T23:54:21.018Z,97.09
2022-08-03T23:57:28.897Z,96.54
